Baltic, South Dakota
Current Conditions -  °F | °C
As of 11:56 AM on Friday 19 Dec 2014 (Local Time) from KFSD Reporting Station
Overcast Overcast  
Wind Chill: 18°   Ceiling: 700
Heat Index: 30°   Visibility: 7mi
Dew Point: 27°   Wind: 17mph
Humidity: 88%   Direction: 180°S
Pressure: 30.13"   Gusts: 21mph
Location:  43.76°N, 96.74°W
Report Text: KFSD 191756Z 18015G18KT 7SM OVC007 M01/M03 A3013 RMK AO2 SLP221 4/002 933001 T10111028 11011 21022 58005
Loading
Personal Weather Stations






























Interactive Weather Map New forecast layout! Learn more

10-Day Weather Forecast

Advertisements
Track Severe Weather on mobile